Time;durP1;ratioP1;P1;durP2;ratioP2;P2;SDS_P1;SDS_P2;PMS_P1;PMS_P2;Temp;Humidity;BMP_temperature;BMP_pressure;BME280_temperature;BME280_humidity;BME280_pressure;Samples;Min_cycle;Max_cycle;Signal;HPM_P1;HPM_P2
2022/01/20 00:01:40;;;;;;;6.85;4.38;;;2.80;99.90;;;;;;5028281;28;20072;-69
2022/01/20 00:03:34;;;;;;;5.78;3.90;;;2.80;99.90;;;;;;5025805;28;20120;-69
2022/01/20 00:28:19;;;;;;;6.22;3.95;;;2.40;99.90;;;;;;5073242;28;20039;-69
2022/01/20 00:31:30;;;;;;;7.28;3.95;;;2.40;99.90;;;;;;5074037;28;20024;-69
2022/01/20 00:33:47;;;;;;;5.43;3.75;;;2.50;99.90;;;;;;5070630;28;20040;-69
2022/01/20 00:38:43;;;;;;;5.32;3.75;;;2.40;99.90;;;;;;5073400;28;20028;-69
2022/01/20 00:41:15;;;;;;;7.70;3.63;;;2.50;99.90;;;;;;5073036;28;20028;-68
2022/01/20 00:43:44;;;;;;;5.00;3.42;;;2.50;99.90;;;;;;5073794;28;20032;-69
2022/01/20 00:46:10;;;;;;;4.20;2.92;;;2.40;99.90;;;;;;5072642;28;20029;-68
2022/01/20 00:48:36;;;;;;;7.57;3.72;;;2.40;99.90;;;;;;5075045;28;20029;-68
2022/01/20 00:51:03;;;;;;;4.65;3.15;;;2.40;99.90;;;;;;5093136;28;20476;-69
2022/01/20 00:53:28;;;;;;;8.63;3.20;;;2.40;99.90;;;;;;5089120;28;20503;-69
2022/01/20 00:55:54;;;;;;;5.05;3.47;;;2.40;99.90;;;;;;5092286;28;20064;-68
2022/01/20 00:58:19;;;;;;;4.30;3.20;;;2.40;99.90;;;;;;5092694;28;20462;-69
2022/01/20 01:00:45;;;;;;;5.10;3.70;;;2.50;99.90;;;;;;5093504;28;20111;-69
2022/01/20 01:03:11;;;;;;;5.75;4.05;;;2.40;99.90;;;;;;5092186;28;20441;-68
2022/01/20 01:05:46;;;;;;;4.82;3.35;;;2.40;99.90;;;;;;5093055;28;20042;-69
2022/01/20 01:08:12;;;;;;;7.25;3.72;;;2.30;99.90;;;;;;5092578;28;20028;-68
2022/01/20 01:10:39;;;;;;;4.75;3.60;;;2.30;99.90;;;;;;5093136;28;20035;-68
2022/01/20 01:13:09;;;;;;;4.28;3.50;;;2.30;99.90;;;;;;5093181;28;20027;-68
2022/01/20 01:15:40;;;;;;;6.70;3.60;;;2.30;99.90;;;;;;5093162;28;20024;-69
2022/01/20 01:23:22;;;;;;;5.50;3.15;;;2.40;99.90;;;;;;5091686;28;20028;-66
2022/01/20 01:25:48;;;;;;;4.55;3.47;;;2.40;99.90;;;;;;5093086;28;20477;-67
2022/01/20 01:28:16;;;;;;;4.43;2.83;;;2.30;99.90;;;;;;5092202;28;20028;-66
2022/01/20 01:31:17;;;;;;;4.97;3.28;;;2.30;99.90;;;;;;5092547;28;20382;-68
2022/01/20 01:33:39;;;;;;;5.18;3.15;;;2.30;99.90;;;;;;5092101;28;20024;-68
2022/01/20 01:36:07;;;;;;;5.07;3.05;;;2.30;99.90;;;;;;5074718;28;20052;-68
2022/01/20 01:38:35;;;;;;;3.97;2.88;;;2.30;99.90;;;;;;5092146;28;20377;-67
2022/01/20 01:41:09;;;;;;;5.75;2.92;;;2.20;99.90;;;;;;5092465;28;20507;-68
2022/01/20 01:43:36;;;;;;;4.25;2.55;;;2.20;99.90;;;;;;5092509;28;20461;-68
2022/01/20 01:46:02;;;;;;;4.28;3.13;;;2.20;99.90;;;;;;5092638;28;20031;-68
2022/01/20 01:48:28;;;;;;;5.30;3.10;;;2.20;99.90;;;;;;5087013;28;20106;-67
2022/01/20 01:50:55;;;;;;;2.88;2.42;;;2.20;99.90;;;;;;5092399;28;20472;-68
2022/01/20 01:53:20;;;;;;;3.80;2.70;;;2.20;99.90;;;;;;5091733;28;20107;-68
2022/01/20 01:55:46;;;;;;;3.60;2.35;;;2.30;99.90;;;;;;5091249;28;20116;-68
2022/01/20 01:58:12;;;;;;;3.28;2.03;;;2.30;99.90;;;;;;5091169;28;20067;-67
2022/01/20 02:00:37;;;;;;;2.95;2.20;;;2.30;99.90;;;;;;5074198;28;20032;-68
2022/01/20 02:03:03;;;;;;;3.60;1.95;;;2.30;99.90;;;;;;5092269;28;20063;-67
2022/01/20 02:05:31;;;;;;;3.13;2.22;;;2.30;99.90;;;;;;5091416;28;20047;-67
2022/01/20 02:18:54;;;;;;;2.92;2.00;;;2.40;99.90;;;;;;5091978;28;20532;-68
2022/01/20 02:21:20;;;;;;;2.72;1.88;;;2.30;99.90;;;;;;5091096;28;20089;-68
2022/01/20 02:23:46;;;;;;;2.80;1.95;;;2.40;99.90;;;;;;5091498;28;20024;-68
2022/01/20 02:26:12;;;;;;;3.65;2.20;;;2.30;99.90;;;;;;5090999;28;20020;-66
2022/01/20 02:28:38;;;;;;;2.45;1.80;;;2.40;99.90;;;;;;5092021;28;20024;-68
2022/01/20 02:31:04;;;;;;;2.97;2.05;;;2.40;99.90;;;;;;5091914;28;20035;-68
2022/01/20 02:33:31;;;;;;;3.42;1.77;;;2.40;99.90;;;;;;5091095;28;20024;-68
2022/01/20 02:36:05;;;;;;;2.78;1.92;;;2.30;99.90;;;;;;5091062;28;20115;-68
2022/01/20 02:38:42;;;;;;;2.58;1.90;;;2.30;99.90;;;;;;5091182;28;20509;-68
2022/01/20 02:46:38;;;;;;;2.28;1.63;;;2.30;99.90;;;;;;5071679;28;20036;-67
2022/01/20 02:49:05;;;;;;;3.50;1.90;;;2.40;99.90;;;;;;5071361;28;20126;-68
2022/01/20 02:51:31;;;;;;;3.08;1.95;;;2.40;99.90;;;;;;5070550;28;20032;-68
2022/01/20 02:53:56;;;;;;;2.15;1.70;;;2.40;99.90;;;;;;5071552;28;20028;-68
2022/01/20 02:56:22;;;;;;;3.75;1.90;;;2.40;99.90;;;;;;5070271;28;20082;-68
2022/01/20 02:58:48;;;;;;;2.17;1.80;;;2.30;99.90;;;;;;5069596;28;20036;-68
2022/01/20 03:01:14;;;;;;;2.40;1.55;;;2.30;99.90;;;;;;5069223;28;20032;-67
2022/01/20 03:03:39;;;;;;;2.33;1.65;;;2.40;99.90;;;;;;5071485;28;20035;-67
2022/01/20 03:06:05;;;;;;;1.85;1.48;;;2.40;99.90;;;;;;5071156;28;20385;-68
2022/01/20 03:08:31;;;;;;;2.13;1.55;;;2.40;99.90;;;;;;5070468;28;20025;-68
2022/01/20 03:10:56;;;;;;;2.28;1.48;;;2.40;99.90;;;;;;5071478;28;20029;-67
2022/01/20 03:13:22;;;;;;;2.50;1.63;;;2.40;99.90;;;;;;5070691;28;20426;-68
2022/01/20 03:15:48;;;;;;;2.20;1.42;;;2.40;99.90;;;;;;5071335;28;20023;-67
2022/01/20 03:18:14;;;;;;;1.75;1.45;;;2.50;99.90;;;;;;5070002;28;20057;-67
2022/01/20 03:20:41;;;;;;;1.88;1.27;;;2.50;99.90;;;;;;5070619;28;20035;-68
2022/01/20 03:23:06;;;;;;;3.28;1.50;;;2.50;99.90;;;;;;5071437;28;20020;-68
2022/01/20 03:25:32;;;;;;;3.05;1.60;;;2.50;99.90;;;;;;5083485;28;20020;-68
2022/01/20 03:27:59;;;;;;;1.55;1.35;;;2.50;99.90;;;;;;5091434;28;20032;-68
2022/01/20 03:30:27;;;;;;;1.55;1.13;;;2.50;99.90;;;;;;5090714;28;20055;-68
2022/01/20 03:32:52;;;;;;;2.45;1.52;;;2.50;99.90;;;;;;5091542;28;20059;-68
2022/01/20 03:35:18;;;;;;;3.45;1.70;;;2.50;99.90;;;;;;5090620;28;20068;-68
2022/01/20 03:37:44;;;;;;;1.95;1.50;;;2.50;99.90;;;;;;5085540;28;20068;-68
2022/01/20 03:40:10;;;;;;;2.45;1.60;;;2.50;99.90;;;;;;5090537;28;20032;-67
2022/01/20 03:42:36;;;;;;;1.83;1.35;;;2.50;99.90;;;;;;5090112;28;20031;-68
2022/01/20 03:45:04;;;;;;;1.98;1.20;;;2.50;99.90;;;;;;5089347;28;20550;-68
2022/01/20 03:47:30;;;;;;;2.25;1.48;;;2.50;99.90;;;;;;5089718;28;20016;-67
2022/01/20 03:50:08;;;;;;;2.97;1.77;;;2.50;99.90;;;;;;5093158;28;20048;-68
2022/01/20 03:52:34;;;;;;;1.92;1.52;;;2.50;99.90;;;;;;5072477;28;20438;-67
2022/01/20 03:55:00;;;;;;;4.68;1.90;;;2.50;99.90;;;;;;5093521;28;20427;-67
2022/01/20 03:57:26;;;;;;;2.65;1.80;;;2.50;99.90;;;;;;5092079;28;20067;-67
2022/01/20 03:59:53;;;;;;;3.00;1.85;;;2.60;99.90;;;;;;5093106;28;20024;-68
2022/01/20 04:02:19;;;;;;;4.30;1.92;;;2.50;99.90;;;;;;5092605;28;20024;-67
2022/01/20 04:04:44;;;;;;;2.10;1.70;;;2.60;99.90;;;;;;5093335;28;20099;-68
2022/01/20 04:07:11;;;;;;;4.75;2.22;;;2.60;99.90;;;;;;5092904;28;20027;-67
2022/01/20 04:09:36;;;;;;;3.50;2.10;;;2.60;99.90;;;;;;5092325;28;20481;-67
2022/01/20 04:12:02;;;;;;;3.08;2.03;;;2.60;99.90;;;;;;5074330;28;20022;-67
2022/01/20 04:14:31;;;;;;;3.70;1.73;;;2.60;99.90;;;;;;5089284;28;20047;-67
2022/01/20 04:19:23;;;;;;;3.13;2.50;;;2.50;99.90;;;;;;5091298;28;20071;-67
2022/01/20 04:21:49;;;;;;;3.65;2.33;;;2.50;99.90;;;;;;5089903;28;20439;-67
2022/01/20 04:24:16;;;;;;;3.35;2.45;;;2.50;99.90;;;;;;5091316;28;20123;-67
2022/01/20 04:26:44;;;;;;;4.90;2.60;;;2.50;99.90;;;;;;5092014;28;20035;-68
2022/01/20 04:29:11;;;;;;;4.90;2.70;;;2.50;99.90;;;;;;5092121;28;20031;-67
2022/01/20 04:31:39;;;;;;;2.85;2.17;;;2.50;99.90;;;;;;5087204;28;20028;-67
2022/01/20 04:34:06;;;;;;;3.40;2.33;;;2.60;99.90;;;;;;5091797;28;20108;-68
2022/01/20 04:36:36;;;;;;;3.97;2.80;;;2.60;99.90;;;;;;5091650;28;20103;-68
2022/01/20 04:39:05;;;;;;;5.97;3.38;;;2.60;99.90;;;;;;5091768;28;20030;-67
2022/01/20 04:41:30;;;;;;;2.75;2.28;;;2.60;99.90;;;;;;5088617;28;20092;-68
2022/01/20 04:43:57;;;;;;;3.28;2.38;;;2.70;99.90;;;;;;5091873;28;20028;-67
2022/01/20 04:59:42;;;;;;;2.33;1.98;;;2.80;99.90;;;;;;5090688;28;20027;-68
2022/01/20 05:02:08;;;;;;;3.72;2.67;;;2.70;99.90;;;;;;5088859;28;20043;-68
2022/01/20 05:04:35;;;;;;;2.63;2.17;;;2.70;99.90;;;;;;5090916;28;20024;-70
2022/01/20 05:07:00;;;;;;;3.25;2.15;;;2.80;99.90;;;;;;5091542;28;20048;-68
2022/01/20 05:09:27;;;;;;;10.80;4.28;;;2.80;99.90;;;;;;5090562;28;20105;-67
2022/01/20 05:12:03;;;;;;;3.70;2.00;;;2.80;99.90;;;;;;5091515;28;20048;-68
2022/01/20 05:14:30;;;;;;;5.75;2.50;;;2.70;99.90;;;;;;5088367;28;20369;-68
2022/01/20 05:16:56;;;;;;;5.13;2.70;;;2.70;99.90;;;;;;5091324;28;20032;-69
2022/01/20 05:19:27;;;;;;;4.43;2.90;;;2.70;99.90;;;;;;5089948;28;20040;-69
2022/01/20 05:21:52;;;;;;;;;;;2.60;99.90;;;;;;5089373;28;20457;-68
2022/01/20 05:24:19;;;;;;;4.53;2.75;;;2.60;99.90;;;;;;5087725;28;19912;-68
2022/01/20 05:26:46;;;;;;;2.83;2.42;;;2.60;99.90;;;;;;5088504;28;20062;-70
2022/01/20 05:29:12;;;;;;;3.55;2.67;;;2.60;99.90;;;;;;5090554;28;20069;-69
2022/01/20 05:31:37;;;;;;;4.00;3.08;;;2.50;99.90;;;;;;5090525;28;20024;-71
2022/01/20 05:34:03;;;;;;;4.72;3.20;;;2.50;99.90;;;;;;5090923;28;20115;-71
2022/01/20 05:36:29;;;;;;;6.28;3.25;;;2.40;99.90;;;;;;5090301;28;20020;-71
2022/01/20 05:38:55;;;;;;;6.60;3.22;;;2.40;99.90;;;;;;5090586;28;20024;-72
2022/01/20 05:41:20;;;;;;;6.18;3.40;;;2.30;99.90;;;;;;5089852;28;20055;-69
2022/01/20 05:43:46;;;;;;;7.82;3.20;;;2.40;99.90;;;;;;5091237;28;20487;-69
2022/01/20 05:46:14;;;;;;;4.95;3.53;;;2.30;99.90;;;;;;5090615;28;20050;-69
2022/01/20 05:48:46;;;;;;;4.65;2.95;;;2.30;99.90;;;;;;5090325;28;20036;-68
2022/01/20 05:51:12;;;;;;;7.15;3.60;;;2.30;99.90;;;;;;5088406;28;20035;-68
2022/01/20 05:53:38;;;;;;;6.50;3.13;;;2.30;99.90;;;;;;5090633;28;20024;-68
2022/01/20 05:56:03;;;;;;;5.90;3.05;;;2.30;99.90;;;;;;5072376;28;20050;-69
2022/01/20 05:58:29;;;;;;;8.07;3.08;;;2.40;99.90;;;;;;5089886;28;20189;-68
2022/01/20 06:00:55;;;;;;;4.15;3.05;;;2.40;99.90;;;;;;5072643;28;20073;-69
2022/01/20 06:03:36;;;;;;;4.97;3.22;;;2.30;99.90;;;;;;5091013;28;20465;-69
2022/01/20 06:06:06;;;;;;;4.60;2.70;;;2.40;99.90;;;;;;5092040;28;20456;-67
2022/01/20 06:08:33;;;;;;;;;;;2.30;99.90;;;;;;5091714;28;20096;-67
2022/01/20 06:10:58;;;;;;;4.85;3.50;;;2.30;99.90;;;;;;5091594;28;19911;-68
2022/01/20 06:13:24;;;;;;;6.00;3.47;;;2.20;99.90;;;;;;5090967;28;20372;-67
2022/01/20 06:15:50;;;;;;;8.40;3.50;;;2.10;99.90;;;;;;5091808;28;20165;-67
2022/01/20 06:18:16;;;;;;;6.32;3.00;;;2.10;99.90;;;;;;5086768;28;20560;-67
2022/01/20 06:20:41;;;;;;;4.28;3.33;;;2.20;99.90;;;;;;5089251;28;20043;-67
2022/01/20 06:23:08;;;;;;;4.53;3.35;;;2.20;99.90;;;;;;5091993;28;20021;-66
2022/01/20 06:25:35;;;;;;;6.25;3.80;;;2.10;99.90;;;;;;5091650;28;20122;-68
2022/01/20 06:28:01;;;;;;;9.00;3.63;;;2.10;99.90;;;;;;5092304;28;20028;-67
2022/01/20 06:30:29;;;;;;;4.35;3.08;;;2.10;99.90;;;;;;5091289;28;20024;-66
2022/01/20 06:32:55;;;;;;;6.72;3.17;;;2.20;99.90;;;;;;5073706;28;20358;-67
2022/01/20 06:35:21;;;;;;;7.13;3.40;;;2.20;99.90;;;;;;5091666;28;20027;-66
2022/01/20 06:37:47;;;;;;;7.72;3.05;;;2.20;99.90;;;;;;5092591;28;20067;-66
2022/01/20 06:40:13;;;;;;;10.70;4.05;;;2.20;99.90;;;;;;5091398;28;20504;-66
2022/01/20 06:42:39;;;;;;;8.15;3.25;;;2.30;99.90;;;;;;5092281;28;20457;-66
2022/01/20 06:45:08;;;;;;;6.60;2.97;;;2.30;99.90;;;;;;5091912;28;20392;-67
2022/01/20 06:47:34;;;;;;;4.72;2.67;;;2.40;99.90;;;;;;5091720;28;20058;-65
2022/01/20 06:50:00;;;;;;;7.65;3.25;;;2.40;99.90;;;;;;5091738;28;20054;-67
2022/01/20 06:52:27;;;;;;;6.95;3.03;;;2.40;99.90;;;;;;5091312;28;20024;-66
2022/01/20 06:54:53;;;;;;;4.57;2.47;;;2.40;99.90;;;;;;5092127;28;20487;-69
2022/01/20 06:57:19;;;;;;;4.35;2.70;;;2.50;99.90;;;;;;5091113;28;20016;-72
2022/01/20 06:59:44;;;;;;;6.25;2.92;;;2.50;99.90;;;;;;5092880;28;20052;-67
2022/01/20 07:02:10;;;;;;;6.55;3.30;;;2.50;99.90;;;;;;5092015;28;20024;-65
2022/01/20 07:04:38;;;;;;;5.00;3.30;;;2.50;99.90;;;;;;5091646;28;20020;-66
2022/01/20 07:07:04;;;;;;;4.65;3.05;;;2.50;99.90;;;;;;5086834;28;20020;-67
2022/01/20 07:09:30;;;;;;;4.80;2.97;;;2.40;99.90;;;;;;5090309;28;20081;-66
2022/01/20 07:11:56;;;;;;;6.35;3.03;;;2.30;99.90;;;;;;5091436;28;20028;-66
2022/01/20 07:14:21;;;;;;;6.90;3.35;;;2.20;99.90;;;;;;5085580;28;20092;-66
2022/01/20 07:16:48;;;;;;;7.22;3.55;;;2.20;99.90;;;;;;5091621;28;20032;-66
2022/01/20 07:19:14;;;;;;;6.38;3.10;;;2.10;99.90;;;;;;5090685;28;20036;-66
2022/01/20 07:21:40;;;;;;;6.80;3.20;;;2.10;99.90;;;;;;5094088;28;20051;-66
2022/01/20 07:24:07;;;;;;;4.70;3.38;;;2.00;99.90;;;;;;5095608;28;20024;-66
2022/01/20 07:26:33;;;;;;;4.75;2.78;;;2.00;99.90;;;;;;5094690;28;20393;-66
2022/01/20 07:28:58;;;;;;;3.83;2.60;;;2.00;99.90;;;;;;5095613;28;20020;-67
2022/01/20 07:31:24;;;;;;;4.80;2.60;;;1.90;99.90;;;;;;5094627;28;20468;-67
2022/01/20 07:33:50;;;;;;;3.58;2.60;;;1.90;99.90;;;;;;5095564;28;20032;-66
2022/01/20 07:36:17;;;;;;;3.35;2.42;;;1.90;99.90;;;;;;5094895;28;20031;-67
2022/01/20 07:38:42;;;;;;;3.95;2.45;;;1.90;99.90;;;;;;5094631;28;20028;-70
2022/01/20 07:41:08;;;;;;;5.03;2.30;;;1.90;99.90;;;;;;5094875;28;20028;-69
2022/01/20 07:43:34;;;;;;;7.07;2.50;;;1.80;99.90;;;;;;5092781;28;20055;-70
2022/01/20 07:46:00;;;;;;;4.68;2.83;;;1.90;99.90;;;;;;5095628;28;20020;-70
2022/01/20 07:48:25;;;;;;;4.95;2.80;;;1.90;99.90;;;;;;5095414;28;20111;-67
2022/01/20 07:50:51;;;;;;;4.30;2.45;;;1.90;99.90;;;;;;5095259;28;20028;-67
2022/01/20 07:53:17;;;;;;;8.35;4.50;;;1.90;99.90;;;;;;5094557;28;20028;-66
2022/01/20 07:55:43;;;;;;;13.25;3.10;;;1.90;99.90;;;;;;5094663;28;20047;-66
2022/01/20 07:58:08;;;;;;;4.80;2.58;;;1.90;99.90;;;;;;5094520;28;20036;-66
2022/01/20 08:00:34;;;;;;;5.45;2.45;;;1.90;99.90;;;;;;5094390;28;20035;-66
2022/01/20 08:03:00;;;;;;;7.43;2.60;;;2.00;99.90;;;;;;5076931;28;20022;-66
2022/01/20 08:05:25;;;;;;;6.72;2.60;;;1.90;99.90;;;;;;5067506;28;20051;-66
2022/01/20 08:07:51;;;;;;;4.95;2.47;;;1.90;99.90;;;;;;5076081;28;20063;-67
2022/01/20 08:10:17;;;;;;;5.72;3.00;;;1.90;99.90;;;;;;5090330;28;20012;-67
2022/01/20 08:12:43;;;;;;;7.25;2.90;;;2.00;99.90;;;;;;5076900;28;20032;-67
2022/01/20 08:15:15;;;;;;;8.60;3.40;;;2.00;99.90;;;;;;5084098;28;20457;-67
2022/01/20 08:17:42;;;;;;;11.02;3.33;;;2.00;99.90;;;;;;5076735;28;20028;-67
2022/01/20 08:20:09;;;;;;;15.80;3.40;;;2.20;99.90;;;;;;5088326;28;20101;-67
2022/01/20 08:22:35;;;;;;;8.60;2.70;;;2.30;99.90;;;;;;5075598;28;20035;-67
2022/01/20 08:25:06;;;;;;;10.13;3.20;;;2.40;99.90;;;;;;5089481;28;20032;-67
2022/01/20 08:27:32;;;;;;;9.63;3.22;;;2.50;99.90;;;;;;5084578;28;20028;-67
2022/01/20 08:29:58;;;;;;;10.13;3.10;;;2.60;99.90;;;;;;5080557;28;20032;-67
2022/01/20 08:32:24;;;;;;;8.77;2.90;;;2.70;99.90;;;;;;5079943;28;20020;-67
2022/01/20 08:34:50;;;;;;;11.30;2.88;;;2.90;99.90;;;;;;5074292;28;20058;-67
2022/01/20 08:37:15;;;;;;;10.32;3.40;;;2.90;99.90;;;;;;5088360;28;20096;-67
2022/01/20 08:39:44;;;;;;;8.63;2.63;;;3.00;99.90;;;;;;5091699;28;20032;-66
2022/01/20 08:42:11;;;;;;;11.27;2.90;;;3.00;99.90;;;;;;5081606;28;20538;-66
2022/01/20 08:44:37;;;;;;;8.82;2.95;;;3.00;99.90;;;;;;5069904;28;20204;-66
2022/01/20 08:47:13;;;;;;;9.30;2.35;;;3.10;99.90;;;;;;5078714;28;20038;-67
2022/01/20 08:49:39;;;;;;;13.27;2.60;;;3.10;99.90;;;;;;5090428;28;20059;-67
2022/01/20 08:52:05;;;;;;;10.27;3.00;;;3.20;99.90;;;;;;5081536;28;20036;-67
2022/01/20 08:54:31;;;;;;;14.52;2.80;;;3.20;99.90;;;;;;5091878;28;20056;-66
2022/01/20 08:56:57;;;;;;;10.27;2.67;;;3.20;99.90;;;;;;5078026;28;20059;-67
2022/01/20 08:59:24;;;;;;;13.23;2.65;;;3.30;99.90;;;;;;5071776;28;20039;-67
2022/01/20 09:01:50;;;;;;;6.78;2.78;;;3.30;99.90;;;;;;5079779;28;20063;-67
2022/01/20 09:04:16;;;;;;;8.45;2.70;;;3.30;99.90;;;;;;5092687;28;20060;-67
2022/01/20 09:06:41;;;;;;;11.65;3.17;;;3.40;99.90;;;;;;5092372;28;20024;-67
2022/01/20 09:09:07;;;;;;;8.07;2.33;;;3.40;99.90;;;;;;5059656;28;20385;-67
2022/01/20 09:11:37;;;;;;;10.23;3.50;;;3.40;99.90;;;;;;5071440;28;20029;-69
2022/01/20 09:16:49;;;;;;;14.73;3.15;;;3.40;99.90;;;;;;5072361;28;20082;-67
2022/01/20 09:19:16;;;;;;;7.22;2.97;;;3.50;99.90;;;;;;5075847;28;20028;-67
2022/01/20 09:21:42;;;;;;;10.40;2.50;;;3.60;99.90;;;;;;5090851;28;20115;-67
2022/01/20 09:24:08;;;;;;;12.07;2.85;;;3.60;99.90;;;;;;5092504;28;20032;-67
2022/01/20 09:26:34;;;;;;;5.65;3.22;;;3.80;99.90;;;;;;5076366;28;20370;-67
2022/01/20 09:29:00;;;;;;;10.35;3.13;;;3.80;99.90;;;;;;5071819;28;20032;-67
2022/01/20 09:31:27;;;;;;;10.32;3.20;;;3.80;99.90;;;;;;5073972;28;20060;-66
2022/01/20 09:33:54;;;;;;;11.25;2.97;;;3.90;99.90;;;;;;5073122;28;20024;-68
2022/01/20 09:36:21;;;;;;;10.40;2.78;;;4.00;99.90;;;;;;5071961;28;20028;-67
2022/01/20 09:38:47;;;;;;;11.75;2.70;;;4.00;99.90;;;;;;5072917;28;20123;-67
2022/01/20 09:41:13;;;;;;;7.43;2.63;;;4.00;99.90;;;;;;5072035;28;20108;-68
2022/01/20 09:43:39;;;;;;;12.65;3.55;;;4.10;99.90;;;;;;5089649;28;20436;-67
2022/01/20 09:46:04;;;;;;;19.85;2.97;;;4.10;99.90;;;;;;5084303;28;20035;-67
2022/01/20 09:48:32;;;;;;;7.10;2.20;;;4.20;99.90;;;;;;5070891;28;20039;-67
2022/01/20 09:51:00;;;;;;;12.98;2.80;;;4.20;99.90;;;;;;5071960;28;20531;-67
2022/01/20 09:53:27;;;;;;;11.32;2.88;;;4.20;99.90;;;;;;5072106;28;20050;-67
2022/01/20 09:55:53;;;;;;;13.35;2.95;;;4.30;99.90;;;;;;5078742;28;20024;-68
2022/01/20 09:58:19;;;;;;;10.40;2.65;;;4.30;99.90;;;;;;5071930;28;20161;-67
2022/01/20 10:00:46;;;;;;;12.63;2.88;;;4.40;99.90;;;;;;5081653;28;20034;-67
2022/01/20 10:03:15;;;;;;;12.15;2.38;;;4.40;99.90;;;;;;5071867;28;20369;-67
2022/01/20 10:05:50;;;;;;;13.15;2.67;;;4.50;99.90;;;;;;5080940;28;20035;-67
2022/01/20 10:08:21;;;;;;;8.95;2.30;;;4.50;99.90;;;;;;5088785;28;20028;-67
2022/01/20 10:11:07;;;;;;;14.52;3.17;;;4.50;99.90;;;;;;5084936;28;20517;-67
2022/01/20 10:13:35;;;;;;;14.30;3.58;;;4.50;99.90;;;;;;5090691;28;20393;-67
2022/01/20 10:16:10;;;;;;;12.35;2.30;;;4.50;99.90;;;;;;5091194;28;20032;-67
2022/01/20 10:18:53;;;;;;;13.15;2.60;;;4.50;99.90;;;;;;5086544;28;20080;-67
2022/01/20 10:21:31;;;;;;;15.48;2.95;;;4.40;99.90;;;;;;5073914;28;20032;-67
2022/01/20 10:24:12;;;;;;;10.95;2.53;;;4.40;99.90;;;;;;5091494;28;20105;-68
2022/01/20 10:26:39;;;;;;;10.25;2.50;;;4.50;99.90;;;;;;5075326;28;20039;-67
2022/01/20 10:29:10;;;;;;;11.05;2.75;;;4.50;99.90;;;;;;5072660;28;20102;-67
2022/01/20 10:31:44;;;;;;;11.40;3.63;;;4.40;99.90;;;;;;5070671;28;20140;-67
2022/01/20 10:34:35;;;;;;;7.78;2.17;;;4.50;99.90;;;;;;5072646;28;20376;-68
2022/01/20 10:37:19;;;;;;;12.32;2.58;;;4.50;99.90;;;;;;5080433;28;20032;-68
2022/01/20 10:39:46;;;;;;;13.73;3.30;;;4.50;99.90;;;;;;5074332;28;20032;-67
2022/01/20 10:42:15;;;;;;;9.85;2.60;;;4.50;99.90;;;;;;5087593;28;20040;-67
2022/01/20 10:44:40;;;;;;;11.77;2.45;;;4.60;99.90;;;;;;5088954;28;20071;-68
2022/01/20 10:47:11;;;;;;;11.40;2.88;;;4.50;99.90;;;;;;5085937;28;20052;-68
2022/01/20 10:49:37;;;;;;;10.02;2.88;;;4.60;99.90;;;;;;5083131;28;20044;-68
2022/01/20 10:52:06;;;;;;;16.42;3.15;;;4.70;99.90;;;;;;5077445;28;20411;-68
2022/01/20 10:54:39;;;;;;;10.63;3.15;;;4.70;99.90;;;;;;5090108;28;20388;-67
2022/01/20 10:57:07;;;;;;;11.90;3.05;;;4.70;99.90;;;;;;5085353;28;20025;-67
2022/01/20 10:59:34;;;;;;;9.57;2.30;;;4.70;99.90;;;;;;5053817;28;20808;-67
2022/01/20 11:02:04;;;;;;;10.65;2.90;;;4.80;99.90;;;;;;5094186;28;20093;-67
2022/01/20 11:04:30;;;;;;;;;;;4.80;99.90;;;;;;5080960;28;20028;-66
2022/01/20 11:06:58;;;;;;;;;;;5.00;99.90;;;;;;5076846;28;19908;-67
2022/01/20 11:09:25;;;;;;;;;;;5.00;99.90;;;;;;5088477;28;19912;-67
2022/01/20 11:11:51;;;;;;;;;;;5.10;99.90;;;;;;5075548;28;19996;-66
2022/01/20 11:14:17;;;;;;;;;;;5.20;99.90;;;;;;5075328;28;19908;-67
2022/01/20 11:16:43;;;;;;;;;;;5.10;99.90;;;;;;5083619;28;20014;-67
2022/01/20 11:19:18;;;;;;;;;;;5.10;99.90;;;;;;5095280;28;19912;-67
2022/01/20 11:21:45;;;;;;;;;;;5.00;99.90;;;;;;5093257;28;19966;-68
2022/01/20 11:24:17;;;;;;;;;;;4.90;99.90;;;;;;5093648;28;19932;-67
2022/01/20 11:26:49;;;;;;;;;;;4.90;99.90;;;;;;5094123;28;20387;-67
2022/01/20 11:29:14;;;;;;;;;;;4.90;99.90;;;;;;5093954;28;19961;-71
2022/01/20 11:31:40;;;;;;;;;;;4.90;99.90;;;;;;5080608;28;20463;-68
2022/01/20 11:34:12;;;;;;;;;;;4.90;99.90;;;;;;5089087;28;19931;-68
2022/01/20 11:36:38;;;;;;;;;;;4.90;99.90;;;;;;5074221;28;19911;-68
2022/01/20 11:39:04;;;;;;;;;;;4.90;99.90;;;;;;5093601;28;19916;-68
2022/01/20 11:41:39;;;;;;;;;;;4.80;99.90;;;;;;5086497;28;19912;-67
2022/01/20 11:44:09;;;;;;;;;;;4.80;99.90;;;;;;5088489;28;20277;-68
2022/01/20 11:46:38;;;;;;;;;;;4.80;99.90;;;;;;5081045;28;19915;-68
2022/01/20 11:49:06;;;;;;;;;;;4.80;99.90;;;;;;5091895;28;19984;-68
2022/01/20 11:51:51;;;;;;;;;;;4.80;99.90;;;;;;5091444;28;19970;-69
2022/01/20 11:54:37;;;;;;;;;;;4.80;99.90;;;;;;5093212;28;19935;-68
2022/01/20 11:57:13;;;;;;;;;;;5.00;99.90;;;;;;5093265;28;19915;-68
2022/01/20 11:59:38;;;;;;;;;;;5.00;99.90;;;;;;5089802;28;19924;-68
2022/01/20 12:02:04;;;;;;;;;;;5.10;99.90;;;;;;5090125;28;19908;-70
2022/01/20 12:04:31;;;;;;;;;;;5.20;99.90;;;;;;5086878;28;20373;-67
2022/01/20 12:06:56;;;;;;;;;;;5.40;99.90;;;;;;5093139;28;19904;-68
2022/01/20 12:09:36;;;;;;;;;;;5.60;99.90;;;;;;5092322;28;19910;-67
2022/01/20 12:12:21;;;;;;;;;;;5.80;99.90;;;;;;5073238;28;19957;-67
2022/01/20 12:14:47;;;;;;;;;;;5.80;99.90;;;;;;5079565;28;19911;-67
2022/01/20 12:17:16;;;;;;;;;;;6.00;99.90;;;;;;5075379;28;20281;-67
2022/01/20 12:19:46;;;;;;;;;;;5.90;99.90;;;;;;5064084;28;20521;-67
2022/01/20 12:22:12;;;;;;;;;;;5.80;99.90;;;;;;5091493;28;20396;-67
2022/01/20 12:24:48;;;;;;;;;;;5.60;99.90;;;;;;5091622;28;19908;-67
2022/01/20 12:27:15;;;;;;;;;;;5.50;99.90;;;;;;5093238;28;19915;-67
2022/01/20 12:29:40;;;;;;;;;;;5.30;99.90;;;;;;5091734;28;20284;-66
2022/01/20 12:32:13;;;;;;;;;;;5.00;99.90;;;;;;5077630;28;20050;-66
2022/01/20 12:34:39;;;;;;;;;;;4.30;99.90;;;;;;5078165;28;19915;-66
2022/01/20 12:37:05;;;;;;;;;;;3.80;99.90;;;;;;5084549;28;19904;-66
2022/01/20 12:39:32;;;;;;;;;;;3.40;99.90;;;;;;5084022;28;19918;-66
2022/01/20 12:42:04;;;;;;;;;;;2.90;99.90;;;;;;5075931;28;19912;-66
2022/01/20 12:45:54;;;;;;;;;;;2.40;99.90;;;;;;5084432;28;19916;-66
2022/01/20 12:47:47;;;;;;;;;;;2.10;99.90;;;;;;5071178;28;19908;-66
2022/01/20 12:50:12;;;;;;;;;;;1.90;99.90;;;;;;5040809;28;1117901;-66
2022/01/20 12:52:45;;;;;;;;;;;1.70;99.90;;;;;;5093125;28;19908;-66
2022/01/20 12:55:10;;;;;;;;;;;1.60;99.90;;;;;;5093325;28;19911;-67
2022/01/20 12:57:36;;;;;;;;;;;1.70;99.90;;;;;;5091372;28;19912;-67
2022/01/20 13:00:03;;;;;;;;;;;1.60;99.90;;;;;;5074168;28;19912;-67
2022/01/20 13:02:32;;;;;;;;;;;1.60;99.90;;;;;;5089919;28;19927;-66
2022/01/20 13:05:00;;;;;;;;;;;1.60;99.90;;;;;;5093113;28;19916;-67
2022/01/20 13:07:27;;;;;;;;;;;1.60;99.90;;;;;;5093164;28;19904;-66
2022/01/20 13:10:02;;;;;;;;;;;1.50;99.90;;;;;;5062312;28;19959;-66
2022/01/20 13:12:36;;;;;;;;;;;1.60;99.90;;;;;;5092825;28;20010;-66
2022/01/20 13:15:02;;;;;;;;;;;1.70;99.90;;;;;;5080025;28;20285;-66
2022/01/20 13:17:30;;;;;;;;;;;1.70;99.90;;;;;;5072789;28;19913;-66
2022/01/20 13:19:57;;;;;;;;;;;1.80;99.90;;;;;;5076482;28;20368;-67
2022/01/20 13:25:05;;;;;;;;;;;1.80;99.90;;;;;;5091724;28;19912;-66
2022/01/20 13:27:32;;;;;;;;;;;1.80;99.90;;;;;;5083707;28;19986;-66
2022/01/20 13:29:58;;;;;;;;;;;1.90;99.90;;;;;;5074845;28;19950;-66
2022/01/20 13:32:23;;;;;;;;;;;1.80;99.90;;;;;;5086882;28;20367;-66
2022/01/20 13:34:56;;;;;;;;;;;1.80;99.90;;;;;;5072731;28;19970;-68
2022/01/20 13:37:22;;;;;;;;;;;1.90;99.90;;;;;;5076424;28;19916;-66
2022/01/20 13:39:49;;;;;;;;;;;1.90;99.90;;;;;;5082083;28;19912;-67
2022/01/20 13:42:30;;;;;;;;;;;1.90;99.90;;;;;;5072621;28;20333;-66
2022/01/20 13:45:12;;;;;;;;;;;1.90;99.90;;;;;;5075501;28;19908;-67
2022/01/20 13:47:58;;;;;;;;;;;2.00;99.90;;;;;;5091823;28;20281;-67
2022/01/20 13:50:26;;;;;;;;;;;2.00;99.90;;;;;;5092230;28;19925;-67
2022/01/20 13:52:53;;;;;;;;;;;2.00;99.90;;;;;;5090658;28;19915;-67
2022/01/20 13:55:25;;;;;;;;;;;2.10;99.90;;;;;;5084996;28;19915;-67
2022/01/20 13:57:51;;;;;;;;;;;2.10;99.90;;;;;;5091677;28;19904;-67
2022/01/20 14:00:21;;;;;;;;;;;2.00;99.90;;;;;;5091702;28;19912;-67
2022/01/20 14:02:48;;;;;;;;;;;2.10;99.90;;;;;;5089973;28;20452;-67
2022/01/20 14:05:33;;;;;;;;;;;2.10;99.90;;;;;;5078026;28;19922;-66
2022/01/20 14:08:00;;;;;;;;;;;2.10;99.90;;;;;;5082759;28;19934;-67
2022/01/20 14:10:25;;;;;;;;;;;2.20;99.90;;;;;;5063659;28;19908;-67
2022/01/20 14:12:51;;;;;;;;;;;2.20;99.90;;;;;;5053904;28;19908;-67
2022/01/20 14:15:19;;;;;;;;;;;2.20;99.90;;;;;;5080055;28;19911;-67
2022/01/20 14:17:51;;;;;;;;;;;2.30;99.90;;;;;;5076320;28;19948;-67
2022/01/20 14:20:17;;;;;;;;;;;2.20;99.90;;;;;;5072105;28;19918;-67
2022/01/20 14:22:43;;;;;;;;;;;2.20;99.90;;;;;;5074593;28;20266;-67
2022/01/20 14:25:11;;;;;;;;;;;2.20;99.90;;;;;;5091773;28;19937;-67
2022/01/20 14:27:37;;;;;;;;;;;2.10;99.90;;;;;;5087036;28;19919;-67
2022/01/20 14:30:03;;;;;;;;;;;2.00;99.90;;;;;;5084832;28;19908;-67